TAF

                                                                                 

SANTO DOMINGO 10 DE SEPTIEMBRE DEL 2020                                                                                 

         AEROP. INT. LAS AMERICAS JFPG

 

FTDR31 MDSD 102200Z
TAF 

TAF MDPP102200Z 1100/1200 08015K 9999 FEW022 PROB301100/1105 7000 –RA BKN016 SCT070 BECMG 1100/1102 00000K=

TAF MDST 102200Z 1100/1200 13010KT 9999 FEW016CB SCT018 PROB30 1102/1106 7000 -TSRA FEW014CB BKN016 SCT070=

TAF MDPC 102200Z 1100/1200 06005KT 9999 SCT022 PROB030 1106/1109 8000 -SHRA FEW018 SCT070 =

TAF MDBH 102200Z 1100/1200 130006KT 9999 FEW018CB SCT018 BKN300 PROB30 1103/1109 7000 -TSRA FEW014CB BKN014 OVC070 BECMG 1108/1110 00000KT=  

TAF MDJB 102200Z 1100/1200 00000KT 9999   FEW016CB SCT018 SCT080 PROB30 TEMPO 1100/1106 7000 –TSRA FEW014CB BKN016 BKN070 BECMG 1114/1116 06006KT=

TAF MDSD 102200Z 1100/1200 06006KT 9999 FEW017CB SCT018 SCT300 PROB30 1100/1106 7000-TSRA FEW016CB BKN017=

TAF MDLR 102200Z 1100/1200 000000KT 9999 SCT018 PROB30 1106/1112 8000-SHRA BKN016 BECMG 1113/1115 08010KT=

TAF MDCY 102200Z 1100/1200 00000KT 9999 SCT018 SCT300 PROB30 1023/1106 8000 -TSRA FEW016CB SCT016 SCT080=

MDPP AEROPUERTO INTERNACIONAL LA UNION PUERTO PLATA

MDST AEROPUERTO INTERNACIONAL DE SANTIAGO

MDPC AEROPUERTO INTERNACIONAL PUNTA CANA

MDBH AEROPUERTO INTERNACIONAL DE BARAHONA

MDJB AEROPUERTO INTERNACIONAL JOAQUIN BALAGUER

MDSD AEROPUERTO INTERNACIONAL LAS AMERICAS

MDLR AEROPUERTO INTERNACIONAL LA ROMANA

MDCY AEROPUERTO INTERNACIONAL DE CATEY

 

JOSELINA NEPOMUCENO

MDPP// JORGE URBAEZ

MDST// ESMEYRA BURGOS 

MDPC// F.FELIZ

MDBH // MENDEZ

MDJB // BELKIS MEDRANO

MDSD // JOSELINA

MDLR // BENITO DE JESUS

MDCY // BELKYS P. BENITEZ